createdAt,value
2022-08-08T00:00:52.783Z,98406.06
2022-08-08T00:03:31.224Z,98410.03
2022-08-08T00:06:10.626Z,98410.28
2022-08-08T00:08:52.061Z,98419.44
2022-08-08T00:11:46.867Z,98415.69
2022-08-08T00:14:48.693Z,98416.16
2022-08-08T00:18:02.163Z,98427.25
2022-08-08T00:20:41.371Z,98417.50
2022-08-08T00:23:19.193Z,98432.47
2022-08-08T00:25:56.330Z,98427.31
2022-08-08T00:28:35.916Z,98421.88
2022-08-08T00:32:20.397Z,98423.88
2022-08-08T00:35:18.812Z,98417.50
2022-08-08T00:38:17.062Z,98422.66
2022-08-08T00:42:09.154Z,98428.16
2022-08-08T00:45:32.487Z,98423.19
2022-08-08T00:49:01.161Z,98425.34
2022-08-08T00:52:05.562Z,98433.44
2022-08-08T00:55:36.091Z,98432.69
2022-08-08T00:59:07.106Z,98438.25
2022-08-08T01:01:51.271Z,98441.69
2022-08-08T01:05:28.877Z,98448.03
2022-08-08T01:09:00.732Z,98444.72
2022-08-08T01:12:46.572Z,98453.72
2022-08-08T01:16:10.644Z,98443.94
2022-08-08T01:20:02.647Z,98455.19
2022-08-08T01:23:55.117Z,98447.34
2022-08-08T01:26:49.296Z,98449.38
2022-08-08T01:30:23.421Z,98439.66
2022-08-08T01:34:00.498Z,98441.28
2022-08-08T01:37:17.471Z,98446.00
2022-08-08T01:40:26.363Z,98444.41
2022-08-08T01:43:13.625Z,98447.59
2022-08-08T01:46:05.681Z,98449.56
2022-08-08T01:49:14.133Z,98458.66
2022-08-08T01:53:01.330Z,98456.13
2022-08-08T01:55:26.482Z,98455.34
2022-08-08T01:58:39.789Z,98447.06
2022-08-08T02:02:00.034Z,98452.59
2022-08-08T02:04:45.216Z,98456.13
2022-08-08T02:07:41.692Z,98452.78
2022-08-08T02:10:47.717Z,98457.72
2022-08-08T02:13:52.595Z,98447.88
2022-08-08T02:16:37.286Z,98448.66
2022-08-08T02:19:41.671Z,98440.59
2022-08-08T02:22:45.813Z,98448.09
2022-08-08T02:25:43.640Z,98441.41
2022-08-08T02:28:35.430Z,98441.81
2022-08-08T02:31:58.281Z,98438.28
2022-08-08T02:34:33.326Z,98433.75
2022-08-08T02:37:51.857Z,98433.72
2022-08-08T02:40:28.164Z,98437.09
2022-08-08T02:44:36.022Z,98433.56
2022-08-08T02:47:25.166Z,98438.66
2022-08-08T02:50:47.349Z,98444.75
2022-08-08T02:53:58.967Z,98445.72
2022-08-08T02:57:21.509Z,98447.28
2022-08-08T03:00:31.142Z,98447.69
2022-08-08T03:05:05.252Z,98449.25
2022-08-08T03:07:57.940Z,98448.66
2022-08-08T03:11:31.833Z,98459.06
2022-08-08T03:15:56.873Z,98458.28
2022-08-08T03:18:00.092Z,98463.78
2022-08-08T03:20:51.482Z,98467.50
2022-08-08T03:23:56.388Z,98463.16
2022-08-08T03:26:42.889Z,98475.94
2022-08-08T03:29:38.071Z,98479.50
2022-08-08T03:32:32.373Z,98476.69
2022-08-08T03:35:06.933Z,98474.31
2022-08-08T03:38:53.504Z,98478.84
2022-08-08T03:40:33.393Z,98480.56
2022-08-08T03:43:18.300Z,98484.13
2022-08-08T03:46:03.254Z,98492.59
2022-08-08T03:49:09.365Z,98494.34
2022-08-08T03:51:50.468Z,98488.22
2022-08-08T03:54:40.834Z,98484.72
2022-08-08T03:58:30.877Z,98488.63
2022-08-08T04:00:18.112Z,98501.78
2022-08-08T04:03:01.559Z,98501.94
2022-08-08T04:05:35.129Z,98495.66
2022-08-08T04:08:10.913Z,98508.81
2022-08-08T04:11:01.051Z,98501.38
2022-08-08T04:14:03.421Z,98507.66
2022-08-08T04:16:40.459Z,98504.56
2022-08-08T04:19:23.122Z,98514.75
2022-08-08T04:21:56.990Z,98518.72
2022-08-08T04:24:31.112Z,98517.94
2022-08-08T04:27:07.616Z,98523.06
2022-08-08T04:29:55.341Z,98526.38
2022-08-08T04:32:34.200Z,98522.03
2022-08-08T04:35:06.369Z,98522.69
2022-08-08T04:37:45.779Z,98526.44
2022-08-08T04:40:24.611Z,98528.66
2022-08-08T04:43:01.546Z,98530.06
2022-08-08T04:45:57.437Z,98534.38
2022-08-08T04:48:27.839Z,98536.69
2022-08-08T04:51:01.712Z,98540.28
2022-08-08T04:53:52.182Z,98540.22
2022-08-08T04:56:25.975Z,98547.88
2022-08-08T04:58:56.159Z,98550.53
2022-08-08T05:01:35.749Z,98557.28
2022-08-08T05:04:18.554Z,98559.28
2022-08-08T05:06:52.610Z,98567.19
2022-08-08T05:09:24.995Z,98570.63
2022-08-08T05:11:56.838Z,98568.63
2022-08-08T05:14:29.301Z,98570.06
2022-08-08T05:17:08.783Z,98567.22
2022-08-08T05:20:12.631Z,98568.69
2022-08-08T05:22:34.276Z,98572.16
2022-08-08T05:25:05.314Z,98579.00
2022-08-08T05:27:41.408Z,98572.06
2022-08-08T05:30:16.327Z,98575.91
2022-08-08T05:32:53.817Z,98573.75
2022-08-08T05:35:26.588Z,98578.31
2022-08-08T05:38:30.157Z,98572.44
2022-08-08T05:41:08.494Z,98576.91
2022-08-08T05:44:04.013Z,98576.59
2022-08-08T05:46:32.960Z,98579.19
2022-08-08T05:49:11.291Z,98588.06
2022-08-08T05:51:49.029Z,98585.97
2022-08-08T05:54:42.940Z,98590.63
2022-08-08T05:57:57.468Z,98591.53
2022-08-08T06:00:22.351Z,98593.47
2022-08-08T06:03:24.669Z,98600.00
2022-08-08T06:06:05.273Z,98591.31
2022-08-08T06:08:40.403Z,98588.44
2022-08-08T06:11:28.225Z,98599.34
2022-08-08T06:13:59.868Z,98598.75
2022-08-08T06:16:31.536Z,98605.81
2022-08-08T06:19:16.226Z,98600.22
2022-08-08T06:21:57.271Z,98604.69
2022-08-08T06:24:35.854Z,98603.91
2022-08-08T06:27:12.362Z,98605.63
2022-08-08T06:30:00.848Z,98613.88
2022-08-08T06:32:47.625Z,98609.31
2022-08-08T06:36:04.160Z,98608.22
2022-08-08T06:38:25.043Z,98611.44
2022-08-08T06:41:05.876Z,98612.88
2022-08-08T06:43:39.875Z,98615.00
2022-08-08T06:46:23.740Z,98617.63
2022-08-08T06:48:55.774Z,98609.09
2022-08-08T06:51:31.171Z,98611.63
2022-08-08T06:54:22.254Z,98609.38
2022-08-08T06:56:54.799Z,98613.34
2022-08-08T06:59:27.093Z,98618.69
2022-08-08T07:02:26.451Z,98619.56
2022-08-08T07:05:07.264Z,98615.16
2022-08-08T07:08:03.049Z,98617.06
2022-08-08T07:10:47.503Z,98609.28
2022-08-08T07:13:25.242Z,98610.75
2022-08-08T07:16:11.935Z,98604.94
2022-08-08T07:19:08.982Z,98613.38
2022-08-08T07:21:59.119Z,98605.88
2022-08-08T07:24:46.545Z,98613.59
2022-08-08T07:27:35.197Z,98611.19
2022-08-08T07:30:25.802Z,98610.78
2022-08-08T07:33:01.112Z,98611.09
2022-08-08T07:35:35.461Z,98609.53
2022-08-08T07:38:09.800Z,98617.03
2022-08-08T07:40:52.141Z,98614.63
2022-08-08T07:43:35.334Z,98617.47
2022-08-08T07:46:23.111Z,98621.19
2022-08-08T07:49:03.535Z,98627.13
2022-08-08T07:51:52.896Z,98622.72
2022-08-08T07:54:35.859Z,98626.47
2022-08-08T07:57:36.057Z,98621.41
2022-08-08T08:00:17.125Z,98627.22
2022-08-08T08:03:12.363Z,98633.66
2022-08-08T08:05:53.264Z,98634.28
2022-08-08T08:08:35.026Z,98628.81
2022-08-08T08:11:09.739Z,98623.13
2022-08-08T08:14:07.621Z,98638.75
2022-08-08T08:16:48.604Z,98636.91
2022-08-08T08:19:22.864Z,98635.66
2022-08-08T08:21:58.388Z,98632.72
2022-08-08T08:24:42.814Z,98637.78
2022-08-08T08:27:14.166Z,98637.91
2022-08-08T08:29:50.971Z,98632.94
2022-08-08T08:32:31.605Z,98638.00
2022-08-08T08:35:09.276Z,98632.25
2022-08-08T08:38:05.532Z,98632.53
2022-08-08T08:40:33.636Z,98638.53
2022-08-08T08:43:11.837Z,98635.38
2022-08-08T08:45:47.490Z,98630.56
2022-08-08T08:48:22.926Z,98637.16
2022-08-08T08:50:57.694Z,98628.28
2022-08-08T08:53:55.229Z,98629.13
2022-08-08T08:56:25.174Z,98622.34
2022-08-08T08:59:09.073Z,98622.63
2022-08-08T09:01:56.161Z,98623.72
2022-08-08T09:04:44.486Z,98628.59
2022-08-08T09:07:39.438Z,98620.72
2022-08-08T09:10:18.052Z,98620.72
2022-08-08T09:12:53.578Z,98617.53
2022-08-08T09:15:41.646Z,98623.97
2022-08-08T09:18:18.096Z,98607.59
2022-08-08T09:21:59.579Z,98615.75
2022-08-08T09:23:44.097Z,98616.69
2022-08-08T09:26:27.470Z,98617.13
2022-08-08T09:29:08.458Z,98616.97
2022-08-08T09:31:57.649Z,98614.88
2022-08-08T09:34:38.427Z,98617.34
2022-08-08T09:37:57.163Z,98610.78
2022-08-08T09:40:20.167Z,98611.66
2022-08-08T09:42:53.202Z,98614.66
2022-08-08T09:45:54.952Z,98607.66
2022-08-08T09:48:27.915Z,98604.63
2022-08-08T09:51:06.646Z,98610.16
2022-08-08T09:53:59.757Z,98614.75
2022-08-08T09:56:46.373Z,98606.97
2022-08-08T10:00:01.139Z,98604.00
2022-08-08T10:02:29.329Z,98602.22
2022-08-08T10:05:14.825Z,98593.66
2022-08-08T10:08:04.001Z,98593.75
2022-08-08T10:10:51.362Z,98595.13
2022-08-08T10:13:29.861Z,98592.25
2022-08-08T10:16:06.836Z,98587.84
2022-08-08T10:18:40.983Z,98584.72
2022-08-08T10:21:24.999Z,98579.75
2022-08-08T10:23:59.324Z,98580.66
2022-08-08T10:26:57.310Z,98578.66
2022-08-08T10:29:58.301Z,98589.84
2022-08-08T10:32:37.571Z,98592.72
2022-08-08T10:35:20.198Z,98581.78
2022-08-08T10:38:13.535Z,98575.75
2022-08-08T10:40:46.814Z,98578.19
2022-08-08T10:43:20.199Z,98576.66
2022-08-08T10:45:55.866Z,98584.94
2022-08-08T10:48:58.952Z,98574.63
2022-08-08T10:51:31.049Z,98572.69
2022-08-08T10:54:02.452Z,98580.44
2022-08-08T10:56:36.943Z,98572.50
2022-08-08T10:59:16.411Z,98572.16
2022-08-08T11:01:54.970Z,98572.06
2022-08-08T11:04:29.826Z,98570.38
2022-08-08T11:07:38.991Z,98576.41
2022-08-08T11:10:04.063Z,98571.91
2022-08-08T11:12:38.392Z,98570.44
2022-08-08T11:15:15.646Z,98572.56
2022-08-08T11:17:58.128Z,98576.25
2022-08-08T11:20:32.360Z,98572.06
2022-08-08T11:23:05.556Z,98561.28
2022-08-08T11:25:53.448Z,98555.09
2022-08-08T11:28:29.760Z,98556.66
2022-08-08T11:31:05.628Z,98550.63
2022-08-08T11:33:52.387Z,98556.72
2022-08-08T11:36:36.416Z,98553.84
2022-08-08T11:39:12.644Z,98553.19
2022-08-08T11:41:45.671Z,98546.53
2022-08-08T11:44:17.654Z,98552.88
2022-08-08T11:47:02.963Z,98551.44
2022-08-08T11:49:44.923Z,98550.84
2022-08-08T11:52:27.478Z,98549.84
2022-08-08T11:55:02.430Z,98553.66
2022-08-08T11:57:36.168Z,98547.03
2022-08-08T12:00:11.075Z,98544.69
2022-08-08T12:02:54.830Z,98545.63
2022-08-08T12:05:36.084Z,98537.34
2022-08-08T12:08:07.576Z,98530.16
2022-08-08T12:10:50.917Z,98528.47
2022-08-08T12:13:33.526Z,98528.06
2022-08-08T12:16:18.864Z,98527.31
2022-08-08T12:18:53.977Z,98526.28
2022-08-08T12:21:59.492Z,98523.47
2022-08-08T12:24:20.625Z,98518.38
2022-08-08T12:26:59.192Z,98523.41
2022-08-08T12:29:42.481Z,98520.09
2022-08-08T12:32:20.925Z,98523.78
2022-08-08T12:35:18.057Z,98510.41
2022-08-08T12:38:02.431Z,98512.69
2022-08-08T12:40:56.641Z,98520.28
2022-08-08T12:43:43.767Z,98513.72
2022-08-08T12:46:26.778Z,98515.78
2022-08-08T12:49:25.079Z,98517.81
2022-08-08T12:51:59.150Z,98511.13
2022-08-08T12:54:36.286Z,98510.38
2022-08-08T12:57:18.946Z,98510.56
2022-08-08T13:00:04.379Z,98511.72
2022-08-08T13:02:42.174Z,98510.16
2022-08-08T13:05:26.351Z,98505.03
2022-08-08T13:08:36.390Z,98499.56
2022-08-08T13:11:08.931Z,98506.31
2022-08-08T13:13:40.715Z,98505.97
2022-08-08T13:16:25.172Z,98507.66
2022-08-08T13:19:06.560Z,98510.28
2022-08-08T13:21:55.391Z,98510.56
2022-08-08T13:24:48.587Z,98508.13
2022-08-08T13:27:22.316Z,98494.34
2022-08-08T13:29:55.545Z,98499.13
2022-08-08T13:32:27.994Z,98493.81
2022-08-08T13:35:01.477Z,98491.16
2022-08-08T13:38:05.711Z,98496.88
2022-08-08T13:40:28.678Z,98488.19
2022-08-08T13:42:59.936Z,98485.44
2022-08-08T13:45:30.766Z,98486.75
2022-08-08T13:48:02.062Z,98488.31
2022-08-08T13:50:49.203Z,98488.13
2022-08-08T13:53:33.998Z,98480.34
2022-08-08T13:56:12.580Z,98476.06
2022-08-08T13:58:56.090Z,98481.53
2022-08-08T14:01:53.106Z,98474.03
2022-08-08T14:04:27.626Z,98475.09
2022-08-08T14:07:07.117Z,98468.56
2022-08-08T14:10:04.427Z,98469.63
2022-08-08T14:12:38.837Z,98478.72
2022-08-08T14:15:31.220Z,98465.41
2022-08-08T14:18:36.304Z,98471.03
2022-08-08T14:21:14.870Z,98463.88
2022-08-08T14:24:03.870Z,98450.72
2022-08-08T14:26:46.432Z,98459.59
2022-08-08T14:29:30.297Z,98454.56
2022-08-08T14:32:08.973Z,98465.56
2022-08-08T14:34:43.706Z,98453.22
2022-08-08T14:37:20.806Z,98459.56
2022-08-08T14:40:05.591Z,98446.50
2022-08-08T14:42:54.934Z,98449.97
2022-08-08T14:46:01.375Z,98447.94
2022-08-08T14:48:34.300Z,98454.06
2022-08-08T14:51:17.560Z,98447.97
2022-08-08T14:53:54.866Z,98447.50
2022-08-08T14:56:28.428Z,98448.28
2022-08-08T14:58:59.529Z,98441.84
2022-08-08T15:01:37.233Z,98446.00
2022-08-08T15:04:12.631Z,98444.09
2022-08-08T15:06:44.483Z,98436.38
2022-08-08T15:09:15.635Z,98442.63
2022-08-08T15:11:53.503Z,98440.72
2022-08-08T15:14:26.360Z,98440.69
2022-08-08T15:16:59.435Z,98443.97
2022-08-08T15:19:32.996Z,98440.41
2022-08-08T15:22:03.086Z,98432.66
2022-08-08T15:24:33.637Z,98433.44
2022-08-08T15:27:19.903Z,98441.75
2022-08-08T15:29:53.676Z,98433.38
2022-08-08T15:32:30.426Z,98425.84
2022-08-08T15:35:04.969Z,98427.50
2022-08-08T15:37:37.813Z,98427.84
2022-08-08T15:40:15.379Z,98430.41
2022-08-08T15:42:49.702Z,98442.16
2022-08-08T15:45:22.948Z,98431.84
2022-08-08T15:48:15.315Z,98433.66
2022-08-08T15:50:59.630Z,98436.03
2022-08-08T15:53:33.089Z,98421.59
2022-08-08T15:56:13.208Z,98423.75
2022-08-08T15:58:48.298Z,98423.81
2022-08-08T16:01:20.934Z,98422.44
2022-08-08T16:03:55.161Z,98416.59
2022-08-08T16:06:28.381Z,98418.94
2022-08-08T16:13:00.600Z,98417.50
2022-08-08T16:13:21.032Z,98414.97
2022-08-08T16:14:52.721Z,98409.81
2022-08-08T16:17:58.186Z,98409.97
2022-08-08T16:20:17.345Z,98409.34
2022-08-08T16:22:50.164Z,98412.06
2022-08-08T16:25:24.378Z,98412.47
2022-08-08T16:28:22.897Z,98410.47
2022-08-08T16:31:07.769Z,98406.63
2022-08-08T16:33:40.191Z,98406.91
2022-08-08T16:36:16.116Z,98405.63
2022-08-08T16:39:09.891Z,98407.19
2022-08-08T16:41:54.025Z,98406.69
2022-08-08T16:44:33.867Z,98408.41
2022-08-08T16:47:21.621Z,98406.19
2022-08-08T16:50:02.721Z,98411.31
2022-08-08T16:55:02.596Z,98415.41
2022-08-08T16:55:55.233Z,98419.44
2022-08-08T16:58:18.837Z,98422.06
2022-08-08T17:00:52.620Z,98418.53
2022-08-08T17:03:24.382Z,98417.91
2022-08-08T17:06:05.747Z,98420.34
2022-08-08T17:08:58.626Z,98415.16
2022-08-08T17:11:39.409Z,98421.16
2022-08-08T17:14:26.875Z,98424.84
2022-08-08T17:17:01.470Z,98420.81
2022-08-08T17:19:40.964Z,98431.97
2022-08-08T17:22:12.622Z,98430.00
2022-08-08T17:24:53.836Z,98425.66
2022-08-08T17:27:29.076Z,98426.91
2022-08-08T17:30:27.539Z,98434.69
2022-08-08T17:34:36.901Z,98438.50
2022-08-08T17:35:54.498Z,98429.78
2022-08-08T17:38:39.052Z,98443.31
2022-08-08T17:41:14.129Z,98444.56
2022-08-08T17:44:01.279Z,98452.72
2022-08-08T17:46:45.542Z,98446.03
2022-08-08T17:49:23.978Z,98460.28
2022-08-08T17:51:56.566Z,98451.31
2022-08-08T17:54:29.203Z,98443.97
2022-08-08T17:57:01.808Z,98457.31
2022-08-08T17:59:36.363Z,98455.41
2022-08-08T18:02:21.283Z,98454.91
2022-08-08T18:04:51.648Z,98456.47
2022-08-08T18:08:15.582Z,98450.50
2022-08-08T18:10:14.039Z,98460.31
2022-08-08T18:12:47.073Z,98465.22
2022-08-08T18:15:17.586Z,98456.75
2022-08-08T18:18:09.139Z,98460.63
2022-08-08T18:20:54.953Z,98456.97
2022-08-08T18:23:27.777Z,98457.59
2022-08-08T18:26:01.470Z,98470.13
2022-08-08T18:28:53.875Z,98465.59
2022-08-08T18:31:27.712Z,98463.91
2022-08-08T18:34:12.268Z,98459.28
2022-08-08T18:36:49.139Z,98470.16
2022-08-08T18:39:28.805Z,98472.59
2022-08-08T18:42:03.599Z,98481.84
2022-08-08T18:44:37.369Z,98486.91
2022-08-08T18:47:07.961Z,98484.44
2022-08-08T18:49:40.809Z,98488.25
2022-08-08T18:52:22.813Z,98488.28
2022-08-08T18:55:01.038Z,98484.16
2022-08-08T18:57:44.986Z,98504.03
2022-08-08T19:00:23.874Z,98503.53
2022-08-08T19:03:05.961Z,98503.03
2022-08-08T19:05:45.206Z,98506.75
2022-08-08T19:08:25.062Z,98513.06
2022-08-08T19:11:01.878Z,98513.06
2022-08-08T19:13:53.560Z,98514.13
2022-08-08T19:16:32.063Z,98522.72
2022-08-08T19:19:09.773Z,98530.00
2022-08-08T19:21:49.116Z,98534.16
2022-08-08T19:24:39.262Z,98533.44
2022-08-08T19:27:11.638Z,98528.75
2022-08-08T19:29:45.763Z,98539.16
2022-08-08T19:32:21.953Z,98545.91
2022-08-08T19:34:53.378Z,98540.72
2022-08-08T19:37:42.069Z,98543.84
2022-08-08T19:40:16.667Z,98541.19
2022-08-08T19:42:48.046Z,98547.41
2022-08-08T19:45:57.272Z,98548.97
2022-08-08T19:48:29.199Z,98557.25
2022-08-08T19:51:02.110Z,98558.00
2022-08-08T19:53:53.466Z,98556.69
2022-08-08T19:56:25.581Z,98566.00
2022-08-08T19:59:10.233Z,98564.94
2022-08-08T20:02:01.168Z,98569.56
2022-08-08T20:04:36.662Z,98570.00
2022-08-08T20:08:39.312Z,98578.03
2022-08-08T20:09:59.238Z,98565.75
2022-08-08T20:12:35.460Z,98571.63
2022-08-08T20:15:16.586Z,98573.97
2022-08-08T20:17:49.970Z,98579.63
2022-08-08T20:20:25.273Z,98575.91
2022-08-08T20:22:56.924Z,98580.06
2022-08-08T20:25:31.360Z,98576.88
2022-08-08T20:28:06.782Z,98576.41
2022-08-08T20:30:55.850Z,98580.50
2022-08-08T20:36:06.503Z,98580.09
2022-08-08T20:38:39.702Z,98573.75
2022-08-08T20:41:17.366Z,98574.78
2022-08-08T20:43:50.293Z,98566.22
2022-08-08T20:46:25.382Z,98569.44
2022-08-08T20:48:58.518Z,98569.72
2022-08-08T20:51:33.443Z,98575.84
2022-08-08T20:54:13.868Z,98578.13
2022-08-08T20:57:16.462Z,98578.81
2022-08-08T20:59:41.257Z,98576.41
2022-08-08T21:02:12.425Z,98580.72
2022-08-08T21:04:43.595Z,98587.13
2022-08-08T21:07:47.998Z,98594.28
2022-08-08T21:10:13.017Z,98594.13
2022-08-08T21:12:44.724Z,98592.47
2022-08-08T21:16:03.835Z,98593.59
2022-08-08T21:18:08.878Z,98601.50
2022-08-08T21:20:38.886Z,98607.41
2022-08-08T21:23:18.037Z,98602.88
2022-08-08T21:25:54.934Z,98606.56
2022-08-08T21:28:35.532Z,98605.16
2022-08-08T21:31:23.153Z,98603.53
2022-08-08T21:33:53.968Z,98604.63
2022-08-08T21:36:29.289Z,98608.22
2022-08-08T21:39:04.300Z,98602.50
2022-08-08T21:41:43.019Z,98598.47
2022-08-08T21:44:22.149Z,98599.81
2022-08-08T21:48:06.010Z,98592.59
2022-08-08T21:49:42.351Z,98595.97
2022-08-08T21:54:36.539Z,98592.44
2022-08-08T21:55:24.284Z,98597.66
2022-08-08T21:58:05.262Z,98599.69
2022-08-08T22:00:40.675Z,98599.59
2022-08-08T22:03:11.316Z,98600.81
2022-08-08T22:05:48.643Z,98599.06
2022-08-08T22:08:24.065Z,98611.97
2022-08-08T22:10:57.714Z,98604.22
2022-08-08T22:13:49.964Z,98611.31
2022-08-08T22:16:18.665Z,98617.03
2022-08-08T22:18:54.116Z,98614.09
2022-08-08T22:21:24.318Z,98613.13
2022-08-08T22:24:04.735Z,98603.53
2022-08-08T22:27:01.928Z,98605.69
2022-08-08T22:29:59.478Z,98614.19
2022-08-08T22:32:18.083Z,98611.22
2022-08-08T22:34:50.734Z,98616.22
2022-08-08T22:37:49.260Z,98616.31
2022-08-08T22:40:17.145Z,98609.06
2022-08-08T22:42:49.903Z,98610.75
2022-08-08T22:45:20.009Z,98601.47
2022-08-08T22:47:52.338Z,98603.59
2022-08-08T22:50:25.949Z,98612.69
2022-08-08T22:54:32.834Z,98612.25
2022-08-08T22:55:59.159Z,98612.91
2022-08-08T22:58:35.853Z,98611.63
2022-08-08T23:01:16.449Z,98607.72
2022-08-08T23:04:01.295Z,98618.16
2022-08-08T23:06:31.498Z,98608.06
2022-08-08T23:09:03.394Z,98609.22
2022-08-08T23:12:27.942Z,98606.56
2022-08-08T23:14:32.527Z,98606.44
2022-08-08T23:17:03.365Z,98604.84
2022-08-08T23:19:33.551Z,98607.75
2022-08-08T23:22:05.312Z,98610.19
2022-08-08T23:24:41.483Z,98608.13
2022-08-08T23:27:37.566Z,98619.91
2022-08-08T23:30:09.253Z,98613.81
2022-08-08T23:32:41.769Z,98617.34
2022-08-08T23:35:17.374Z,98618.22
2022-08-08T23:38:02.964Z,98615.16
2022-08-08T23:40:34.010Z,98613.72
2022-08-08T23:43:04.640Z,98608.78
2022-08-08T23:49:06.572Z,98609.78
2022-08-08T23:49:07.546Z,98609.34
2022-08-08T23:51:42.419Z,98598.41
2022-08-08T23:54:41.758Z,98604.91
2022-08-08T23:56:58.294Z,98603.69
2022-08-08T23:59:28.930Z,98602.09
